createdAt,value
2022-11-01T00:02:12.286Z,20.10
2022-11-01T00:04:39.669Z,21.38
2022-11-01T00:07:07.205Z,20.25
2022-11-01T00:09:36.813Z,22.48
2022-11-01T00:12:04.091Z,20.20
2022-11-01T00:14:31.275Z,21.73
2022-11-01T00:16:58.311Z,20.48
2022-11-01T00:19:27.689Z,23.13
2022-11-01T00:21:54.757Z,20.92
2022-11-01T00:24:21.831Z,20.70
2022-11-01T00:29:22.924Z,23.58
2022-11-01T00:31:52.462Z,22.55
2022-11-01T00:34:19.555Z,20.70
2022-11-01T00:36:46.727Z,26.92
2022-11-01T00:39:15.552Z,25.70
2022-11-01T00:41:42.770Z,25.77
2022-11-01T00:44:09.848Z,28.08
2022-11-01T00:46:36.997Z,38.88
2022-11-01T00:49:06.378Z,34.47
2022-11-01T00:51:33.434Z,38.47
2022-11-01T00:54:00.554Z,37.28
2022-11-01T00:56:27.666Z,45.20
2022-11-01T00:58:56.857Z,41.30
2022-11-01T01:01:23.998Z,44.88
2022-11-01T01:03:51.194Z,45.58
2022-11-01T01:06:18.334Z,47.42
2022-11-01T01:08:47.676Z,49.33
2022-11-01T01:11:15.028Z,43.13
2022-11-01T01:13:42.619Z,41.33
2022-11-01T01:16:12.142Z,37.15
2022-11-01T01:18:39.592Z,43.25
2022-11-01T01:21:06.909Z,31.63
2022-11-01T01:23:34.237Z,36.20
2022-11-01T01:26:09.515Z,33.67
2022-11-01T01:28:41.839Z,32.10
2022-11-01T01:31:14.872Z,40.83
2022-11-01T01:33:42.123Z,38.08
2022-11-01T01:36:09.302Z,40.47
2022-11-01T01:38:41.309Z,36.17
2022-11-01T01:41:27.085Z,36.15
2022-11-01T01:43:54.212Z,35.60
2022-11-01T01:46:23.965Z,30.73
2022-11-01T01:48:57.707Z,32.00
2022-11-01T01:51:27.879Z,27.52
2022-11-01T01:53:58.317Z,30.10
2022-11-01T01:56:35.223Z,29.85
2022-11-01T01:59:11.593Z,29.48
2022-11-01T02:01:41.319Z,25.73
2022-11-01T02:04:39.442Z,27.90
2022-11-01T02:07:08.456Z,25.30
2022-11-01T02:09:36.762Z,25.02
2022-11-01T02:12:04.412Z,24.88
2022-11-01T02:14:31.995Z,24.98
2022-11-01T02:17:21.291Z,24.67
2022-11-01T02:19:57.975Z,24.10
2022-11-01T02:23:02.956Z,21.88
2022-11-01T02:26:21.807Z,21.10
2022-11-01T02:29:28.334Z,21.30
2022-11-01T02:32:01.080Z,23.33
2022-11-01T02:35:27.277Z,21.33
2022-11-01T02:38:06.140Z,19.52
2022-11-01T02:41:03.235Z,17.48
2022-11-01T02:43:55.647Z,19.08
2022-11-01T02:46:42.557Z,19.33
2022-11-01T02:49:15.342Z,21.83
2022-11-01T02:51:47.471Z,21.80
2022-11-01T02:54:28.090Z,18.67
2022-11-01T02:56:58.238Z,22.02
2022-11-01T02:59:28.454Z,19.85
2022-11-01T03:02:40.056Z,16.75
2022-11-01T03:05:23.876Z,17.50
2022-11-01T03:08:05.506Z,19.88
2022-11-01T03:11:14.404Z,20.35
2022-11-01T03:14:08.806Z,18.02
2022-11-01T03:16:47.453Z,20.38
2022-11-01T03:19:43.739Z,19.52
2022-11-01T03:22:36.554Z,21.38
2022-11-01T03:25:30.974Z,21.65
2022-11-01T03:28:07.534Z,20.73
2022-11-01T03:30:42.116Z,23.88
2022-11-01T03:33:14.787Z,20.35
2022-11-01T03:35:47.759Z,23.27
2022-11-01T03:38:20.016Z,23.73
2022-11-01T03:43:27.657Z,22.55
2022-11-01T03:45:55.463Z,20.52
2022-11-01T03:48:22.598Z,20.27
2022-11-01T03:50:56.356Z,24.48
2022-11-01T03:53:24.646Z,23.55
2022-11-01T03:55:52.547Z,23.20
2022-11-01T03:58:22.187Z,24.88
2022-11-01T04:00:51.878Z,21.75
2022-11-01T04:03:18.964Z,21.27
2022-11-01T04:05:46.049Z,22.08
2022-11-01T04:08:13.098Z,22.40
2022-11-01T04:10:40.232Z,19.45
2022-11-01T04:13:09.699Z,20.30
2022-11-01T04:15:55.430Z,20.23
2022-11-01T04:18:45.633Z,21.35
2022-11-01T04:21:15.323Z,20.83
2022-11-01T04:23:43.824Z,23.08
2022-11-01T04:26:16.550Z,21.40
2022-11-01T04:28:57.199Z,28.00
2022-11-01T04:31:37.047Z,23.10
2022-11-01T04:34:05.718Z,23.58
2022-11-01T04:36:32.854Z,25.23
2022-11-01T04:39:00.103Z,25.65
2022-11-01T04:41:29.407Z,22.83
2022-11-01T04:44:00.622Z,20.75
2022-11-01T04:46:31.926Z,23.98
2022-11-01T04:48:59.055Z,22.67
2022-11-01T04:51:26.289Z,22.80
2022-11-01T04:53:53.427Z,19.40
2022-11-01T04:56:20.451Z,24.10
2022-11-01T04:58:47.524Z,19.25
2022-11-01T05:01:15.439Z,16.48
2022-11-01T05:03:43.706Z,21.17
2022-11-01T05:06:10.749Z,20.00
2022-11-01T05:08:37.861Z,22.27
2022-11-01T05:11:04.957Z,25.85
2022-11-01T05:13:34.188Z,22.83
2022-11-01T05:16:21.155Z,26.65
2022-11-01T05:18:50.850Z,26.27
2022-11-01T05:21:20.808Z,26.42
2022-11-01T05:23:49.209Z,24.33
2022-11-01T05:26:16.257Z,21.10
2022-11-01T05:28:43.506Z,23.58
2022-11-01T05:31:11.032Z,25.05
2022-11-01T05:33:38.090Z,21.92
2022-11-01T05:36:05.742Z,21.60
2022-11-01T05:38:37.626Z,19.35
2022-11-01T05:41:04.973Z,16.63
2022-11-01T05:43:32.079Z,23.23
2022-11-01T05:45:59.103Z,24.80
2022-11-01T05:48:26.235Z,22.58
2022-11-01T05:50:54.835Z,22.95
2022-11-01T05:53:21.885Z,21.85
2022-11-01T05:55:51.117Z,17.95
2022-11-01T05:58:18.135Z,20.30
2022-11-01T06:00:45.217Z,23.77
2022-11-01T06:03:12.242Z,29.92
2022-11-01T06:05:39.839Z,32.33
2022-11-01T06:08:07.560Z,26.85
2022-11-01T06:10:35.006Z,21.33
2022-11-01T06:13:04.731Z,23.83
2022-11-01T06:15:37.217Z,24.17
2022-11-01T06:18:09.197Z,21.23
2022-11-01T06:20:38.401Z,24.27
2022-11-01T06:23:11.632Z,23.20
2022-11-01T06:25:38.808Z,19.35
2022-11-01T06:28:05.834Z,19.13
2022-11-01T06:30:32.920Z,20.08
2022-11-01T06:33:03.186Z,20.42
2022-11-01T06:35:30.691Z,20.42
2022-11-01T06:38:07.035Z,20.92
2022-11-01T06:40:37.915Z,19.45
2022-11-01T06:43:06.436Z,16.63
2022-11-01T06:45:34.053Z,17.38
2022-11-01T06:48:01.507Z,18.25
2022-11-01T06:50:28.842Z,17.77
2022-11-01T06:53:00.354Z,22.30
2022-11-01T06:55:28.939Z,27.65
2022-11-01T06:58:01.430Z,18.63
2022-11-01T07:00:30.598Z,24.58
2022-11-01T07:03:05.787Z,17.23
2022-11-01T07:05:37.441Z,18.33
2022-11-01T07:08:08.555Z,14.80
2022-11-01T07:10:39.013Z,15.75
2022-11-01T07:13:09.240Z,16.52
2022-11-01T07:15:36.505Z,19.27
2022-11-01T07:18:06.478Z,15.38
2022-11-01T07:20:41.268Z,18.90
2022-11-01T07:23:17.324Z,14.32
2022-11-01T07:25:44.773Z,17.48
2022-11-01T07:28:12.303Z,15.82
2022-11-01T07:30:39.545Z,19.38
2022-11-01T07:33:07.074Z,17.23
2022-11-01T07:35:35.929Z,18.50
2022-11-01T07:38:06.422Z,21.17
2022-11-01T07:40:41.821Z,20.10
2022-11-01T07:43:09.182Z,15.38
2022-11-01T07:45:37.336Z,16.38
2022-11-01T07:48:10.450Z,14.90
2022-11-01T07:50:40.163Z,13.02
2022-11-01T07:53:16.709Z,21.30
2022-11-01T07:55:44.998Z,21.92
2022-11-01T07:58:14.878Z,22.75
2022-11-01T08:00:46.381Z,26.80
2022-11-01T08:03:16.933Z,19.35
2022-11-01T08:05:45.872Z,19.55
2022-11-01T08:08:14.604Z,20.02
2022-11-01T08:10:42.523Z,23.17
2022-11-01T08:13:19.352Z,16.25
2022-11-01T08:15:48.363Z,16.00
2022-11-01T08:18:16.869Z,19.30
2022-11-01T08:20:44.112Z,19.10
2022-11-01T08:23:11.747Z,17.77
2022-11-01T08:25:41.583Z,19.23
2022-11-01T08:28:16.283Z,20.52
2022-11-01T08:30:45.443Z,18.13
2022-11-01T08:33:12.604Z,18.50
2022-11-01T08:35:40.017Z,13.98
2022-11-01T08:38:07.262Z,18.08
2022-11-01T08:40:34.750Z,20.48
2022-11-01T08:43:02.652Z,18.48
2022-11-01T08:45:30.081Z,23.75
2022-11-01T08:48:03.718Z,18.85
2022-11-01T08:50:33.909Z,19.55
2022-11-01T08:53:11.142Z,20.92
2022-11-01T08:55:38.587Z,22.75
2022-11-01T08:58:07.152Z,21.58
2022-11-01T09:00:35.313Z,22.67
2022-11-01T09:03:02.541Z,22.60
2022-11-01T09:05:31.448Z,23.75
2022-11-01T09:08:01.409Z,21.27
2022-11-01T09:10:31.060Z,24.60
2022-11-01T09:13:02.213Z,23.08
2022-11-01T09:15:30.211Z,24.20
2022-11-01T09:17:57.464Z,20.65
2022-11-01T09:20:24.517Z,20.92
2022-11-01T09:22:54.974Z,21.30
2022-11-01T09:25:22.094Z,24.17
2022-11-01T09:27:49.115Z,23.83
2022-11-01T09:30:18.876Z,30.48
2022-11-01T09:32:46.370Z,30.58
2022-11-01T09:35:13.432Z,26.23
2022-11-01T09:37:42.949Z,24.17
2022-11-01T09:40:13.040Z,23.65
2022-11-01T09:42:45.364Z,26.67
2022-11-01T09:45:34.581Z,22.38
2022-11-01T09:48:05.797Z,28.52
2022-11-01T09:50:43.943Z,29.73
2022-11-01T09:53:29.298Z,26.67
2022-11-01T09:56:44.298Z,26.77
2022-11-01T09:59:23.361Z,30.05
2022-11-01T10:02:45.828Z,30.17
2022-11-01T10:05:18.754Z,31.58
2022-11-01T10:08:27.472Z,27.73
2022-11-01T10:11:10.020Z,24.67
2022-11-01T10:14:28.729Z,27.35
2022-11-01T10:17:16.604Z,30.92
2022-11-01T10:19:48.764Z,58.60
2022-11-01T10:25:08.996Z,42.83
2022-11-01T10:27:55.410Z,45.33
2022-11-01T10:30:22.530Z,47.17
2022-11-01T10:33:17.094Z,36.22
2022-11-01T10:35:46.435Z,39.85
2022-11-01T10:39:23.097Z,33.28
2022-11-01T10:41:53.756Z,36.83
2022-11-01T10:44:33.015Z,32.65
2022-11-01T10:47:08.298Z,38.97
2022-11-01T10:53:02.714Z,39.08
2022-11-01T10:55:57.719Z,36.75
2022-11-01T10:58:47.378Z,39.45
2022-11-01T11:01:24.304Z,36.00
2022-11-01T11:03:52.289Z,44.03
2022-11-01T11:06:22.205Z,41.70
2022-11-01T11:08:55.637Z,39.40
2022-11-01T11:11:42.519Z,42.75
2022-11-01T11:14:11.735Z,44.88
2022-11-01T11:17:00.300Z,39.05
2022-11-01T11:19:30.279Z,41.95
2022-11-01T11:21:59.252Z,41.35
2022-11-01T11:24:43.913Z,43.65
2022-11-01T11:27:27.341Z,40.33
2022-11-01T11:30:05.356Z,38.25
2022-11-01T11:32:47.871Z,39.83
2022-11-01T11:35:14.821Z,46.58
2022-11-01T11:37:58.417Z,43.70
2022-11-01T11:40:38.894Z,41.15
2022-11-01T11:43:23.156Z,43.40
2022-11-01T11:46:21.002Z,41.88
2022-11-01T11:49:01.159Z,39.33
2022-11-01T11:51:31.030Z,41.17
2022-11-01T11:54:22.595Z,46.15
2022-11-01T11:57:24.998Z,40.95
2022-11-01T12:00:00.456Z,43.58
2022-11-01T12:02:39.253Z,39.53
2022-11-01T12:05:19.202Z,43.80
2022-11-01T12:07:50.548Z,47.60
2022-11-01T12:10:45.731Z,45.07
2022-11-01T12:13:37.796Z,46.35
2022-11-01T12:16:17.106Z,46.80
2022-11-01T12:19:02.132Z,51.83
2022-11-01T12:21:41.319Z,48.88
2022-11-01T12:24:49.378Z,53.30
2022-11-01T12:27:22.049Z,53.00
2022-11-01T12:29:59.751Z,53.90
2022-11-01T12:32:32.234Z,57.45
2022-11-01T12:35:04.930Z,54.08
2022-11-01T12:37:53.219Z,57.90
2022-11-01T12:40:43.527Z,59.05
2022-11-01T12:43:31.314Z,58.03
2022-11-01T12:46:19.263Z,65.78
2022-11-01T12:49:11.567Z,67.18
2022-11-01T12:51:50.642Z,58.70
2022-11-01T12:54:20.087Z,61.30
2022-11-01T12:56:47.182Z,61.20
2022-11-01T12:59:23.374Z,77.22
2022-11-01T13:02:28.560Z,55.00
2022-11-01T13:05:07.893Z,60.47
2022-11-01T13:08:11.182Z,63.67
2022-11-01T13:10:44.164Z,61.30
2022-11-01T13:14:01.680Z,63.60
2022-11-01T13:16:40.129Z,70.57
2022-11-01T13:19:10.209Z,69.45
2022-11-01T13:21:58.504Z,64.55
2022-11-01T13:24:56.373Z,73.00
2022-11-01T13:27:33.143Z,64.77
2022-11-01T13:30:04.524Z,77.95
2022-11-01T13:32:48.922Z,76.23
2022-11-01T13:35:34.884Z,82.00
2022-11-01T13:38:25.672Z,80.35
2022-11-01T13:41:34.278Z,83.95
2022-11-01T13:44:19.296Z,76.18
2022-11-01T13:47:16.748Z,76.88
2022-11-01T13:50:21.735Z,81.47
2022-11-01T13:53:14.028Z,80.13
2022-11-01T13:56:02.483Z,74.57
2022-11-01T13:58:31.510Z,78.38
2022-11-01T14:01:28.419Z,74.03
2022-11-01T14:04:14.392Z,82.57
2022-11-01T14:07:05.154Z,76.72
2022-11-01T14:09:42.252Z,93.50
2022-11-01T14:12:09.747Z,145.13
2022-11-01T14:14:38.725Z,135.23
2022-11-01T14:17:21.010Z,92.72
2022-11-01T14:19:55.704Z,86.38
2022-11-01T14:22:22.664Z,82.55
2022-11-01T14:25:03.413Z,77.47
2022-11-01T14:27:37.950Z,80.70
2022-11-01T14:30:28.662Z,78.25
2022-11-01T14:32:59.682Z,76.50
2022-11-01T14:35:33.564Z,81.18
2022-11-01T14:38:11.834Z,79.15
2022-11-01T14:40:53.756Z,90.10
2022-11-01T14:43:25.397Z,84.50
2022-11-01T14:45:59.847Z,81.82
2022-11-01T14:48:42.043Z,89.88
2022-11-01T14:51:21.567Z,80.10
2022-11-01T14:54:20.377Z,87.65
2022-11-01T14:56:55.861Z,90.38
2022-11-01T14:59:27.384Z,83.78
2022-11-01T15:02:02.648Z,89.03
2022-11-01T15:04:44.223Z,94.20
2022-11-01T15:07:27.845Z,82.55
2022-11-01T15:10:10.505Z,98.28
2022-11-01T15:12:58.869Z,83.13
2022-11-01T15:15:31.356Z,90.65
2022-11-01T15:18:22.018Z,78.55
2022-11-01T15:20:55.003Z,76.00
2022-11-01T15:23:45.567Z,92.47
2022-11-01T15:26:16.002Z,91.05
2022-11-01T15:29:20.102Z,84.53
2022-11-01T15:31:58.745Z,82.28
2022-11-01T15:34:34.686Z,79.63
2022-11-01T15:37:20.749Z,80.47
2022-11-01T15:39:48.339Z,76.80
2022-11-01T15:42:23.678Z,76.95
2022-11-01T15:44:50.915Z,82.15
2022-11-01T15:47:23.900Z,87.97
2022-11-01T15:50:04.991Z,83.10
2022-11-01T15:52:34.777Z,86.18
2022-11-01T15:55:47.867Z,79.20
2022-11-01T15:58:26.732Z,84.50
2022-11-01T16:01:10.593Z,86.72
2022-11-01T16:04:03.253Z,76.90
2022-11-01T16:09:28.389Z,80.45
2022-11-01T16:12:02.565Z,81.25
2022-11-01T16:14:37.699Z,85.50
2022-11-01T16:17:20.649Z,87.05
2022-11-01T16:19:51.730Z,83.38
2022-11-01T16:22:31.215Z,79.82
2022-11-01T16:25:07.361Z,84.90
2022-11-01T16:27:53.841Z,92.18
2022-11-01T16:30:43.005Z,87.82
2022-11-01T16:33:33.782Z,89.47
2022-11-01T16:36:04.740Z,82.35
2022-11-01T16:38:37.282Z,89.82
2022-11-01T16:41:24.818Z,90.80
2022-11-01T16:43:57.850Z,85.22
2022-11-01T16:46:30.305Z,87.88
2022-11-01T16:49:15.551Z,88.22
2022-11-01T16:51:43.009Z,87.40
2022-11-01T16:54:10.515Z,93.35
2022-11-01T16:56:45.144Z,90.60
2022-11-01T16:59:18.023Z,87.65
2022-11-01T17:01:49.340Z,87.95
2022-11-01T17:04:19.421Z,97.45
2022-11-01T17:06:46.481Z,91.55
2022-11-01T17:09:16.688Z,92.18
2022-11-01T17:11:50.743Z,98.85
2022-11-01T17:14:22.195Z,95.78
2022-11-01T17:16:56.337Z,109.57
2022-11-01T17:19:31.836Z,94.50
2022-11-01T17:22:07.243Z,109.00
2022-11-01T17:24:35.393Z,100.43
2022-11-01T17:27:05.382Z,109.38
2022-11-01T17:29:33.258Z,107.68
2022-11-01T17:32:04.236Z,103.65
2022-11-01T17:34:31.343Z,102.68
2022-11-01T17:36:58.555Z,101.25
2022-11-01T17:39:28.977Z,108.75
2022-11-01T17:41:57.034Z,106.95
2022-11-01T17:44:26.601Z,110.90
2022-11-01T17:46:53.749Z,102.43
2022-11-01T17:49:23.714Z,106.32
2022-11-01T17:51:54.773Z,103.65
2022-11-01T17:54:23.482Z,99.30
2022-11-01T17:56:51.448Z,96.97
2022-11-01T17:59:18.862Z,105.82
2022-11-01T18:01:46.260Z,100.13
2022-11-01T18:04:13.518Z,97.60
2022-11-01T18:06:40.824Z,102.72
2022-11-01T18:09:27.188Z,99.07
2022-11-01T18:12:15.113Z,98.65
2022-11-01T18:15:02.623Z,96.05
2022-11-01T18:17:52.516Z,93.50
2022-11-01T18:20:46.818Z,95.05
2022-11-01T18:23:20.064Z,96.32
2022-11-01T18:25:49.220Z,89.97
2022-11-01T18:28:26.522Z,99.53
2022-11-01T18:31:02.313Z,91.53
2022-11-01T18:33:41.746Z,87.63
2022-11-01T18:36:26.309Z,96.55
2022-11-01T18:39:41.785Z,97.05
2022-11-01T18:42:10.515Z,87.18
2022-11-01T18:44:40.654Z,102.78
2022-11-01T18:47:21.250Z,94.40
2022-11-01T18:49:52.188Z,83.90
2022-11-01T18:52:22.861Z,83.90
2022-11-01T18:54:56.522Z,85.95
2022-11-01T18:57:24.897Z,87.40
2022-11-01T18:59:56.168Z,85.18
2022-11-01T19:02:28.322Z,97.35
2022-11-01T19:05:21.388Z,91.93
2022-11-01T19:08:20.286Z,88.07
2022-11-01T19:10:43.365Z,85.05
2022-11-01T19:13:32.418Z,94.25
2022-11-01T19:16:02.033Z,82.63
2022-11-01T19:18:29.938Z,91.88
2022-11-01T19:21:00.946Z,90.82
2022-11-01T19:23:38.966Z,89.45
2022-11-01T19:26:24.156Z,95.32
2022-11-01T19:28:53.830Z,90.15
2022-11-01T19:31:29.600Z,82.47
2022-11-01T19:34:06.227Z,81.30
2022-11-01T19:39:37.641Z,89.40
2022-11-01T19:42:32.215Z,82.03
2022-11-01T19:45:05.023Z,82.10
2022-11-01T19:47:41.847Z,86.80
2022-11-01T19:50:27.887Z,76.68
2022-11-01T19:52:59.044Z,80.10
2022-11-01T19:55:44.384Z,81.32
2022-11-01T19:58:27.969Z,74.97
2022-11-01T20:01:24.144Z,74.40
2022-11-01T20:04:00.636Z,72.15
2022-11-01T20:06:27.961Z,78.07
2022-11-01T20:09:18.447Z,78.32
2022-11-01T20:11:45.910Z,77.63
2022-11-01T20:14:13.292Z,74.45
2022-11-01T20:16:40.912Z,77.57
2022-11-01T20:19:13.240Z,71.03
2022-11-01T20:21:44.503Z,74.97
2022-11-01T20:24:11.615Z,73.25
2022-11-01T20:26:38.742Z,83.15
2022-11-01T20:29:08.462Z,77.75
2022-11-01T20:31:35.549Z,81.00
2022-11-01T20:34:02.826Z,81.10
2022-11-01T20:36:30.028Z,74.55
2022-11-01T20:38:59.446Z,71.35
2022-11-01T20:41:27.331Z,70.75
2022-11-01T20:43:54.392Z,68.55
2022-11-01T20:46:24.107Z,66.93
2022-11-01T20:48:51.248Z,68.05
2022-11-01T20:51:18.438Z,70.85
2022-11-01T20:53:45.502Z,70.60
2022-11-01T20:56:15.056Z,71.13
2022-11-01T20:58:42.172Z,73.55
2022-11-01T21:01:19.826Z,69.47
2022-11-01T21:03:51.764Z,66.72
2022-11-01T21:06:19.276Z,62.78
2022-11-01T21:08:47.724Z,67.43
2022-11-01T21:11:44.137Z,68.50
2022-11-01T21:14:21.809Z,59.35
2022-11-01T21:16:53.444Z,62.28
2022-11-01T21:21:59.043Z,69.18
2022-11-01T21:24:37.390Z,71.60
2022-11-01T21:27:13.153Z,65.95
2022-11-01T21:29:49.225Z,57.55
2022-11-01T21:32:30.013Z,65.25
2022-11-01T21:34:58.473Z,72.63
2022-11-01T21:37:29.957Z,62.67
2022-11-01T21:40:05.202Z,65.63
2022-11-01T21:42:36.518Z,67.70
2022-11-01T21:45:38.906Z,64.22
2022-11-01T21:48:34.415Z,62.95
2022-11-01T21:51:01.480Z,59.47
2022-11-01T21:53:28.493Z,58.45
2022-11-01T21:55:55.601Z,58.50
2022-11-01T21:58:25.034Z,58.65
2022-11-01T22:00:52.100Z,60.35
2022-11-01T22:03:19.220Z,56.85
2022-11-01T22:05:46.290Z,58.63
2022-11-01T22:08:13.406Z,56.80
2022-11-01T22:10:40.498Z,51.53
2022-11-01T22:13:10.229Z,60.33
2022-11-01T22:15:37.529Z,55.42
2022-11-01T22:18:06.947Z,58.53
2022-11-01T22:20:36.317Z,51.10
2022-11-01T22:23:03.598Z,62.53
2022-11-01T22:25:30.920Z,54.03
2022-11-01T22:27:57.983Z,55.47
2022-11-01T22:30:25.185Z,55.15
2022-11-01T22:32:52.224Z,54.10
2022-11-01T22:35:19.314Z,67.07
2022-11-01T22:37:46.497Z,53.78
2022-11-01T22:40:14.977Z,52.80
2022-11-01T22:42:42.003Z,53.00
2022-11-01T22:45:17.937Z,53.88
2022-11-01T22:47:48.866Z,60.35
2022-11-01T22:50:27.951Z,53.90
2022-11-01T22:52:55.097Z,61.60
2022-11-01T22:55:27.449Z,52.85
2022-11-01T22:58:24.709Z,50.95
2022-11-01T23:00:51.882Z,51.38
2022-11-01T23:03:38.392Z,58.45
2022-11-01T23:06:34.718Z,53.00
2022-11-01T23:09:15.137Z,46.60
2022-11-01T23:12:10.515Z,48.50
2022-11-01T23:14:40.162Z,48.30
2022-11-01T23:17:21.874Z,50.05
2022-11-01T23:20:15.741Z,53.65
2022-11-01T23:22:43.018Z,46.03
2022-11-01T23:25:10.627Z,48.60
2022-11-01T23:27:37.872Z,42.72
2022-11-01T23:30:05.495Z,43.92
2022-11-01T23:32:32.708Z,45.67
2022-11-01T23:35:18.117Z,44.28
2022-11-01T23:37:46.506Z,44.58
2022-11-01T23:40:21.278Z,42.58
2022-11-01T23:42:49.079Z,43.92
2022-11-01T23:45:33.992Z,41.85
2022-11-01T23:48:02.385Z,44.08
2022-11-01T23:50:35.881Z,42.00
2022-11-01T23:53:06.490Z,46.67
2022-11-01T23:55:48.315Z,42.00
